Katlin Olivia — WCY6622 — position and weather

sailwx.info

Track history (hours):
 
Tides and Currents Weather Stations Pressure Air Temp Water Temp Dewpoint Dewpoint Depression Visibility Wind Speed Wind Dir Waves Ship Positions

Katlin Olivia

Owner: LA CARRIERS, INC., CUT OFF, LA. More information available from US FCC via Universal Licensing System and Coast Guard Vessel Documentation Center.

Last reported at 2018-May-23 19:12 UTC. Time now 2018-Jun-18 22:31 UTC.
Position N 30°26' W 086°17'.
Warning: this ship's position is 26 days out of date.

; draft 3 m.

Type: Towing. MMSI: 367005970.

Date/timePositionNaut miles runAvg speedWind from/ knotsBaromVisibWave heightAir tempDewpointWater temp
2018-May-23 19:12N 30°26' W 086°17'1 6.4
2018-May-23 19:00N 30°26' W 086°19'3 6.3
2018-May-23 18:30N 30°26' W 086°22'3 6.4
2018-May-23 18:00N 30°26' W 086°26'3 6.4
2018-May-23 17:30N 30°26' W 086°30'12 6.0
2018-May-23 15:26N 30°24' W 086°44'3 6.1
2018-May-23 15:01N 30°24' W 086°47'3 6.1
2018-May-23 14:30N 30°24' W 086°50'3 6.2
2018-May-23 13:59N 30°24' W 086°54'  
2018-May-16 12:39N 30°17' W 086°49'2 5.4
2018-May-16 12:19N 30°17' W 086°51'  
2018-May-14 04:00N 30°23' W 086°55'3 5.5
2018-May-14 03:30N 30°24' W 086°51'3 5.4
2018-May-14 03:01N 30°24' W 086°48'3 5.7
2018-May-14 02:30N 30°24' W 086°45'11 5.5
2018-May-14 00:35N 30°25' W 086°33'0 5.5
2018-May-14 00:30N 30°25' W 086°32'3 5.6
2018-May-14 00:00N 30°26' W 086°29'3 5.6
2018-May-13 23:30N 30°26' W 086°26'3 5.7
2018-May-13 23:00N 30°26' W 086°23'  
Track history (hours):
 
Tides and Currents Weather Stations Pressure Air Temp Water Temp Dewpoint Dewpoint Depression Visibility Wind Speed Wind Dir Waves Ship Positions

Katlin Olivia

Owner: LA CARRIERS, INC., CUT OFF, LA. More information available from US FCC via Universal Licensing System and Coast Guard Vessel Documentation Center.

Last reported at 2018-May-23 19:12 UTC. Time now 2018-Jun-18 22:31 UTC.
Position N 30°26' W 086°17'.
Warning: this ship's position is 26 days out of date.

; draft 3 m.

Type: Towing. MMSI: 367005970.

Date/timePositionNaut miles runAvg speedWind from/ knotsBaromVisibWave heightAir tempDewpointWater temp
2018-May-23 19:12N 30°26' W 086°17'1 6.4
2018-May-23 19:00N 30°26' W 086°19'3 6.3
2018-May-23 18:30N 30°26' W 086°22'3 6.4
2018-May-23 18:00N 30°26' W 086°26'3 6.4
2018-May-23 17:30N 30°26' W 086°30'12 6.0
2018-May-23 15:26N 30°24' W 086°44'3 6.1
2018-May-23 15:01N 30°24' W 086°47'3 6.1
2018-May-23 14:30N 30°24' W 086°50'3 6.2
2018-May-23 13:59N 30°24' W 086°54'  
2018-May-16 12:39N 30°17' W 086°49'2 5.4
2018-May-16 12:19N 30°17' W 086°51'  
2018-May-14 04:00N 30°23' W 086°55'3 5.5
2018-May-14 03:30N 30°24' W 086°51'3 5.4
2018-May-14 03:01N 30°24' W 086°48'3 5.7
2018-May-14 02:30N 30°24' W 086°45'11 5.5
2018-May-14 00:35N 30°25' W 086°33'0 5.5
2018-May-14 00:30N 30°25' W 086°32'3 5.6
2018-May-14 00:00N 30°26' W 086°29'3 5.6
2018-May-13 23:30N 30°26' W 086°26'3 5.7
2018-May-13 23:00N 30°26' W 086°23'  

Dump ship's entire track history